Time;durP1;ratioP1;P1;durP2;ratioP2;P2;SDS_P1;SDS_P2;PMS_P1;PMS_P2;Temp;Humidity;BMP_temperature;BMP_pressure;BME280_temperature;BME280_humidity;BME280_pressure;Samples;Min_cycle;Max_cycle;Signal;HPM_P1;HPM_P2
2023/12/12 00:00:43;;;;;;;10.33;6.20;;;;;;;;;;5001348;28;20208;-70
2023/12/12 00:03:11;;;;;;;9.40;5.73;;;;;;;;;;5000539;28;20631;-70
2023/12/12 00:05:40;;;;;;;9.10;5.87;;;;;;;;;;5000498;28;20225;-70
2023/12/12 00:08:08;;;;;;;9.13;6.10;;;;;;;;;;5001183;28;20209;-70
2023/12/12 00:10:36;;;;;;;11.27;6.43;;;;;;;;;;4993978;28;20308;-70
2023/12/12 00:13:04;;;;;;;10.23;5.73;;;;;;;;;;5000962;28;20204;-70
2023/12/12 00:15:32;;;;;;;9.03;5.87;;;;;;;;;;5000876;28;20307;-70
2023/12/12 00:18:02;;;;;;;7.73;5.57;;;;;;;;;;5001111;28;20209;-70
2023/12/12 00:20:30;;;;;;;9.47;5.30;;;;;;;;;;5001129;28;20208;-70
2023/12/12 00:22:59;;;;;;;7.07;5.27;;;;;;;;;;5000734;28;20205;-70
2023/12/12 00:25:27;;;;;;;9.07;5.80;;;;;;;;;;5001040;28;20256;-70
2023/12/12 00:27:56;;;;;;;11.93;5.83;;;;;;;;;;5000829;28;20259;-70
2023/12/12 00:30:25;;;;;;;9.67;5.90;;;;;;;;;;5000642;28;20260;-70
2023/12/12 00:32:53;;;;;;;9.00;5.90;;;;;;;;;;4988593;28;20212;-70
2023/12/12 00:35:23;;;;;;;8.07;5.97;;;;;;;;;;5000429;28;20279;-70
2023/12/12 00:37:51;;;;;;;11.27;5.83;;;;;;;;;;5000372;28;20201;-70
2023/12/12 00:40:19;;;;;;;8.73;6.20;;;;;;;;;;5000561;28;20221;-70
2023/12/12 00:42:48;;;;;;;6.40;5.73;;;;;;;;;;5000432;28;20212;-70
2023/12/12 00:45:16;;;;;;;7.27;5.73;;;;;;;;;;5000401;28;20846;-70
2023/12/12 00:47:45;;;;;;;8.07;5.63;;;;;;;;;;5000525;28;20645;-70
2023/12/12 00:50:13;;;;;;;6.67;5.57;;;;;;;;;;4999800;28;20233;-70
2023/12/12 00:52:43;;;;;;;6.73;5.60;;;;;;;;;;5000248;28;20205;-70
2023/12/12 00:55:11;;;;;;;7.50;5.30;;;;;;;;;;5000258;28;20217;-70
2023/12/12 00:57:39;;;;;;;9.17;6.00;;;;;;;;;;5000076;28;20219;-70
2023/12/12 01:00:09;;;;;;;11.63;5.93;;;;;;;;;;4999935;28;20201;-69
2023/12/12 01:02:37;;;;;;;8.43;5.37;;;;;;;;;;5000285;28;20208;-69
2023/12/12 01:05:05;;;;;;;10.50;5.77;;;;;;;;;;5000068;28;20235;-69
2023/12/12 01:07:34;;;;;;;9.73;6.17;;;;;;;;;;4999378;28;20211;-69
2023/12/12 01:10:05;;;;;;;10.13;6.30;;;;;;;;;;5000022;28;20683;-69
2023/12/12 01:12:34;;;;;;;9.70;5.97;;;;;;;;;;4999638;28;20205;-69
2023/12/12 01:15:05;;;;;;;10.37;5.90;;;;;;;;;;5000332;28;20703;-69
2023/12/12 01:17:33;;;;;;;9.10;6.37;;;;;;;;;;4999943;28;20201;-69
2023/12/12 01:20:02;;;;;;;9.87;6.03;;;;;;;;;;4999817;28;20205;-69
2023/12/12 01:22:31;;;;;;;9.13;6.60;;;;;;;;;;4999718;28;20224;-69
2023/12/12 01:24:59;;;;;;;7.27;5.13;;;;;;;;;;5000351;28;20240;-69
2023/12/12 01:27:29;;;;;;;11.13;6.60;;;;;;;;;;4999222;28;20208;-69
2023/12/12 01:29:57;;;;;;;8.00;5.77;;;;;;;;;;4999981;28;20221;-69
2023/12/12 01:32:25;;;;;;;8.83;5.87;;;;;;;;;;4999515;28;20200;-70
2023/12/12 01:34:54;;;;;;;8.57;5.43;;;;;;;;;;4999626;28;20225;-69
2023/12/12 01:37:22;;;;;;;10.30;6.00;;;;;;;;;;4998886;28;20584;-69
2023/12/12 01:39:50;;;;;;;8.80;6.30;;;;;;;;;;4999484;28;20255;-70
2023/12/12 01:42:18;;;;;;;8.53;6.00;;;;;;;;;;4999132;28;20209;-68
2023/12/12 01:44:48;;;;;;;7.97;5.77;;;;;;;;;;4999375;28;20236;-69
2023/12/12 01:47:16;;;;;;;8.47;6.20;;;;;;;;;;4999596;28;20216;-69
2023/12/12 01:49:45;;;;;;;9.43;5.70;;;;;;;;;;4999298;28;20236;-69
2023/12/12 01:52:14;;;;;;;11.50;6.10;;;;;;;;;;4988519;28;20216;-70
2023/12/12 01:54:46;;;;;;;7.77;5.50;;;;;;;;;;4998925;28;20229;-70
2023/12/12 01:57:15;;;;;;;9.50;5.87;;;;;;;;;;4999301;28;20209;-69
2023/12/12 01:59:43;;;;;;;10.07;6.27;;;;;;;;;;4998888;28;20207;-70
2023/12/12 02:02:16;;;;;;;7.50;5.90;;;;;;;;;;4999138;28;20209;-69
2023/12/12 02:04:45;;;;;;;13.60;6.63;;;;;;;;;;4998490;28;20589;-70
2023/12/12 02:07:14;;;;;;;11.10;6.60;;;;;;;;;;4998990;28;20232;-69
2023/12/12 02:09:42;;;;;;;8.40;6.00;;;;;;;;;;4998321;28;20264;-69
2023/12/12 02:12:10;;;;;;;9.77;6.40;;;;;;;;;;4998911;28;20216;-69
2023/12/12 02:14:38;;;;;;;10.30;7.10;;;;;;;;;;4998620;28;20225;-70
2023/12/12 02:17:07;;;;;;;13.37;7.70;;;;;;;;;;4998717;28;20212;-70
2023/12/12 02:19:36;;;;;;;14.40;9.13;;;;;;;;;;4997108;28;20204;-70
2023/12/12 02:22:06;;;;;;;14.37;8.47;;;;;;;;;;4998602;28;20610;-70
2023/12/12 02:24:34;;;;;;;15.13;8.00;;;;;;;;;;4998340;28;20669;-70
2023/12/12 02:27:03;;;;;;;14.57;8.83;;;;;;;;;;4998716;28;20209;-69
2023/12/12 02:29:31;;;;;;;19.40;8.57;;;;;;;;;;4998418;28;20332;-69
2023/12/12 02:31:59;;;;;;;14.63;8.67;;;;;;;;;;4998517;28;20236;-69
2023/12/12 02:34:27;;;;;;;38.73;17.30;;;;;;;;;;4998286;28;20220;-69
2023/12/12 02:36:55;;;;;;;29.20;15.33;;;;;;;;;;4997781;28;20665;-69
2023/12/12 02:39:25;;;;;;;22.33;12.70;;;;;;;;;;4998699;28;20205;-69
2023/12/12 02:41:53;;;;;;;21.50;10.50;;;;;;;;;;4998108;28;20687;-69
2023/12/12 02:44:21;;;;;;;18.47;11.30;;;;;;;;;;4998094;28;20252;-69
2023/12/12 02:46:49;;;;;;;18.57;9.03;;;;;;;;;;4998110;28;20572;-70
2023/12/12 02:49:17;;;;;;;12.50;8.53;;;;;;;;;;4998375;28;20239;-69
2023/12/12 02:51:46;;;;;;;12.47;7.10;;;;;;;;;;4997681;28;20251;-70
2023/12/12 02:54:14;;;;;;;9.83;6.17;;;;;;;;;;4998191;28;20221;-69
2023/12/12 02:56:43;;;;;;;8.37;5.97;;;;;;;;;;4997935;28;20207;-69
2023/12/12 02:59:11;;;;;;;10.67;6.60;;;;;;;;;;4998423;28;20205;-70
2023/12/12 03:01:39;;;;;;;13.97;7.83;;;;;;;;;;4997869;28;20251;-69
2023/12/12 03:04:08;;;;;;;13.67;8.23;;;;;;;;;;4997788;28;20291;-69
2023/12/12 03:06:36;;;;;;;12.43;7.43;;;;;;;;;;4995949;28;20570;-69
2023/12/12 03:09:04;;;;;;;10.97;7.33;;;;;;;;;;4997917;28;20746;-69
2023/12/12 03:11:34;;;;;;;11.17;6.93;;;;;;;;;;4998003;28;20228;-69
2023/12/12 03:14:03;;;;;;;11.90;7.87;;;;;;;;;;4997907;28;20209;-69
2023/12/12 03:16:31;;;;;;;27.73;15.77;;;;;;;;;;4997867;28;20200;-69
2023/12/12 03:19:00;;;;;;;20.23;10.57;;;;;;;;;;4997966;28;20208;-69
2023/12/12 03:21:28;;;;;;;11.27;6.53;;;;;;;;;;4997620;28;20659;-69
2023/12/12 03:23:56;;;;;;;14.70;6.00;;;;;;;;;;4997770;28;20209;-69
2023/12/12 03:26:24;;;;;;;7.30;5.17;;;;;;;;;;4997715;28;20201;-69
2023/12/12 03:28:52;;;;;;;10.57;6.20;;;;;;;;;;4992535;28;20220;-69
2023/12/12 03:31:22;;;;;;;9.70;5.77;;;;;;;;;;5001010;28;20239;-68
2023/12/12 03:33:50;;;;;;;9.60;5.57;;;;;;;;;;5001603;28;20217;-69
2023/12/12 03:36:18;;;;;;;11.30;5.77;;;;;;;;;;5001768;28;20232;-69
2023/12/12 03:38:46;;;;;;;6.90;4.57;;;;;;;;;;5001202;28;20214;-68
2023/12/12 03:41:16;;;;;;;7.83;4.60;;;;;;;;;;5001911;28;20201;-68
2023/12/12 03:43:45;;;;;;;7.23;4.60;;;;;;;;;;5001276;28;20280;-69
2023/12/12 03:46:13;;;;;;;8.27;4.77;;;;;;;;;;5001594;28;20239;-69
2023/12/12 03:48:42;;;;;;;8.97;5.00;;;;;;;;;;4999444;28;20205;-69
2023/12/12 03:51:11;;;;;;;6.03;4.37;;;;;;;;;;5001350;28;20762;-68
2023/12/12 03:53:39;;;;;;;8.97;4.37;;;;;;;;;;5001520;28;20197;-68
2023/12/12 03:56:08;;;;;;;7.23;4.83;;;;;;;;;;5001234;28;20224;-69
2023/12/12 03:58:36;;;;;;;8.27;4.70;;;;;;;;;;5000335;28;20216;-69
2023/12/12 04:01:06;;;;;;;5.77;4.53;;;;;;;;;;5001222;28;20201;-69
2023/12/12 04:03:34;;;;;;;8.87;4.87;;;;;;;;;;5001369;28;20200;-69
2023/12/12 04:06:04;;;;;;;10.60;4.63;;;;;;;;;;5001103;28;20224;-69
2023/12/12 04:08:33;;;;;;;9.60;5.13;;;;;;;;;;5001463;28;20208;-68
2023/12/12 04:11:01;;;;;;;5.63;4.43;;;;;;;;;;5000829;28;20224;-69
2023/12/12 04:13:29;;;;;;;5.97;4.17;;;;;;;;;;5000827;28;20205;-69
2023/12/12 04:15:57;;;;;;;8.47;4.83;;;;;;;;;;5001014;28;20229;-69
2023/12/12 04:18:26;;;;;;;7.60;5.10;;;;;;;;;;5000856;28;20204;-69
2023/12/12 04:20:54;;;;;;;8.03;5.27;;;;;;;;;;5000841;28;20205;-69
2023/12/12 04:23:24;;;;;;;6.00;4.23;;;;;;;;;;5000929;28;20224;-69
2023/12/12 04:25:52;;;;;;;7.07;5.00;;;;;;;;;;5000871;28;20231;-69
2023/12/12 04:28:21;;;;;;;14.97;5.83;;;;;;;;;;5000436;28;20205;-69
2023/12/12 04:30:49;;;;;;;5.13;4.20;;;;;;;;;;5000952;28;20205;-69
2023/12/12 04:33:17;;;;;;;6.63;5.37;;;;;;;;;;5000524;28;20356;-68
2023/12/12 04:35:45;;;;;;;8.70;4.63;;;;;;;;;;5000746;28;20260;-70
2023/12/12 04:38:14;;;;;;;10.37;5.03;;;;;;;;;;4999606;28;20545;-71
2023/12/12 04:40:43;;;;;;;8.90;5.60;;;;;;;;;;5000673;28;20212;-69
2023/12/12 04:43:11;;;;;;;10.43;6.60;;;;;;;;;;5000196;28;20208;-71
2023/12/12 04:45:40;;;;;;;9.97;5.47;;;;;;;;;;5000064;28;20580;-71
2023/12/12 04:48:08;;;;;;;7.20;5.20;;;;;;;;;;5000264;28;20209;-71
2023/12/12 04:50:37;;;;;;;7.70;5.33;;;;;;;;;;4998723;28;20240;-70
2023/12/12 04:53:05;;;;;;;7.50;5.10;;;;;;;;;;4999989;28;20596;-70
2023/12/12 04:55:35;;;;;;;6.97;4.80;;;;;;;;;;5000314;28;20235;-70
2023/12/12 04:58:05;;;;;;;6.10;4.87;;;;;;;;;;4999975;28;20287;-70
2023/12/12 05:00:33;;;;;;;8.70;5.27;;;;;;;;;;5000186;28;20245;-70
2023/12/12 05:03:01;;;;;;;8.70;4.93;;;;;;;;;;4999906;28;20205;-70
2023/12/12 05:05:29;;;;;;;7.77;4.73;;;;;;;;;;4999297;28;20576;-70
2023/12/12 05:07:57;;;;;;;8.20;4.90;;;;;;;;;;4998599;28;20235;-70
2023/12/12 05:10:27;;;;;;;8.10;5.03;;;;;;;;;;4998855;28;20284;-70
2023/12/12 05:12:56;;;;;;;7.53;4.47;;;;;;;;;;4998719;28;20260;-70
2023/12/12 05:15:27;;;;;;;7.73;4.70;;;;;;;;;;5000226;28;20378;-68
2023/12/12 05:17:56;;;;;;;7.33;4.53;;;;;;;;;;4998760;28;20207;-69
2023/12/12 05:20:24;;;;;;;6.50;4.37;;;;;;;;;;4991532;28;20225;-70
2023/12/12 05:22:52;;;;;;;6.60;4.37;;;;;;;;;;4992728;28;20212;-68
2023/12/12 05:25:20;;;;;;;6.37;4.30;;;;;;;;;;4995376;28;20224;-68
2023/12/12 05:27:52;;;;;;;5.90;3.90;;;;;;;;;;4998971;28;20205;-69
2023/12/12 05:30:21;;;;;;;7.70;4.57;;;;;;;;;;4999333;28;20205;-69
2023/12/12 05:32:52;;;;;;;8.57;5.33;;;;;;;;;;4999711;28;20668;-69
2023/12/12 05:35:20;;;;;;;6.73;4.07;;;;;;;;;;4999252;28;20580;-68
2023/12/12 05:37:51;;;;;;;6.57;4.30;;;;;;;;;;4998534;28;20209;-68
2023/12/12 05:40:20;;;;;;;7.40;4.47;;;;;;;;;;4999457;28;20212;-69
2023/12/12 05:42:48;;;;;;;7.73;4.23;;;;;;;;;;4999144;28;20205;-69
2023/12/12 05:45:17;;;;;;;6.30;4.00;;;;;;;;;;4999136;28;20303;-68
2023/12/12 05:47:45;;;;;;;8.93;4.40;;;;;;;;;;4999141;28;20212;-71
2023/12/12 05:50:15;;;;;;;6.97;4.57;;;;;;;;;;4998891;28;20636;-69
2023/12/12 05:52:43;;;;;;;7.90;4.60;;;;;;;;;;4998899;28;20254;-69
2023/12/12 05:55:11;;;;;;;5.87;4.40;;;;;;;;;;4999040;28;20229;-70
2023/12/12 05:57:39;;;;;;;7.77;4.47;;;;;;;;;;4998508;28;20213;-69
2023/12/12 06:00:08;;;;;;;8.00;4.47;;;;;;;;;;4998865;28;20252;-69
2023/12/12 06:02:36;;;;;;;10.30;4.13;;;;;;;;;;4999202;28;20201;-69
2023/12/12 06:05:07;;;;;;;10.43;5.97;;;;;;;;;;4998646;28;20228;-69
2023/12/12 06:07:37;;;;;;;6.30;4.40;;;;;;;;;;4999267;28;20205;-70
2023/12/12 06:10:06;;;;;;;5.67;4.03;;;;;;;;;;4994772;28;20215;-68
2023/12/12 06:12:35;;;;;;;8.77;4.13;;;;;;;;;;4998723;28;20256;-66
2023/12/12 06:15:07;;;;;;;8.43;4.03;;;;;;;;;;4998111;28;20229;-69
2023/12/12 06:17:36;;;;;;;7.00;4.10;;;;;;;;;;4990919;28;20228;-69
2023/12/12 06:20:06;;;;;;;10.43;4.83;;;;;;;;;;4998455;28;20224;-69
2023/12/12 06:22:35;;;;;;;7.33;4.37;;;;;;;;;;4998152;28;20205;-68
2023/12/12 06:25:06;;;;;;;9.40;5.23;;;;;;;;;;4997691;28;20235;-68
2023/12/12 06:27:35;;;;;;;6.57;4.40;;;;;;;;;;4992822;28;20232;-68
2023/12/12 06:30:14;;;;;;;10.67;4.50;;;;;;;;;;4998162;28;20213;-69
2023/12/12 06:32:42;;;;;;;4.40;3.73;;;;;;;;;;4998195;28;20221;-68
2023/12/12 06:35:10;;;;;;;8.90;4.57;;;;;;;;;;4998292;28;20653;-69
2023/12/12 06:37:39;;;;;;;6.87;3.90;;;;;;;;;;4997909;28;20208;-69
2023/12/12 06:40:11;;;;;;;6.43;3.93;;;;;;;;;;4997723;28;20639;-69
2023/12/12 06:42:41;;;;;;;7.10;3.73;;;;;;;;;;4998263;28;20215;-69
2023/12/12 06:45:10;;;;;;;15.60;6.20;;;;;;;;;;4997881;28;20228;-69
2023/12/12 06:47:38;;;;;;;5.60;4.00;;;;;;;;;;4998370;28;20303;-69
2023/12/12 06:50:07;;;;;;;5.77;3.90;;;;;;;;;;4997574;28;20335;-69
2023/12/12 06:52:35;;;;;;;7.03;3.93;;;;;;;;;;4998157;28;20596;-69
2023/12/12 06:55:05;;;;;;;6.03;4.47;;;;;;;;;;4997737;28;20624;-69
2023/12/12 06:57:35;;;;;;;6.07;5.00;;;;;;;;;;4997179;28;20205;-69
2023/12/12 07:00:05;;;;;;;8.17;4.53;;;;;;;;;;4997775;28;20209;-69
2023/12/12 07:02:34;;;;;;;8.47;5.73;;;;;;;;;;4998053;28;20241;-69
2023/12/12 07:05:04;;;;;;;7.60;4.00;;;;;;;;;;4997243;28;20229;-69
2023/12/12 07:07:32;;;;;;;6.57;4.23;;;;;;;;;;4997968;28;20214;-69
2023/12/12 07:10:04;;;;;;;6.50;3.90;;;;;;;;;;4997686;28;20660;-69
2023/12/12 07:12:32;;;;;;;4.97;4.10;;;;;;;;;;4997643;28;20219;-69
2023/12/12 07:15:02;;;;;;;4.70;3.80;;;;;;;;;;4994825;28;20225;-69
2023/12/12 07:17:30;;;;;;;7.30;3.87;;;;;;;;;;4998134;28;20252;-69
2023/12/12 07:19:59;;;;;;;6.57;3.73;;;;;;;;;;4997738;28;20213;-69
2023/12/12 07:22:27;;;;;;;6.63;3.93;;;;;;;;;;4997810;28;20210;-69
2023/12/12 07:24:55;;;;;;;7.77;4.03;;;;;;;;;;4997645;28;20224;-69
2023/12/12 07:27:23;;;;;;;8.23;4.40;;;;;;;;;;4997655;28;20204;-69
2023/12/12 07:29:51;;;;;;;8.77;5.23;;;;;;;;;;4997931;28;20209;-69
2023/12/12 07:32:21;;;;;;;13.17;6.77;;;;;;;;;;4997509;28;20201;-69
2023/12/12 07:34:49;;;;;;;8.90;5.40;;;;;;;;;;4997635;28;20236;-69
2023/12/12 07:37:18;;;;;;;6.13;4.13;;;;;;;;;;4996999;28;20235;-71
2023/12/12 07:39:46;;;;;;;6.80;4.00;;;;;;;;;;4997841;28;20208;-69
2023/12/12 07:42:15;;;;;;;9.20;4.60;;;;;;;;;;4996999;28;20211;-69
2023/12/12 07:44:43;;;;;;;9.97;4.87;;;;;;;;;;4997821;28;20267;-68
2023/12/12 07:47:12;;;;;;;8.70;4.93;;;;;;;;;;4997585;28;20207;-69
2023/12/12 07:49:42;;;;;;;10.83;5.23;;;;;;;;;;4997258;28;20298;-69
2023/12/12 07:52:10;;;;;;;9.33;5.03;;;;;;;;;;4997206;28;20668;-69
2023/12/12 07:54:38;;;;;;;6.27;4.40;;;;;;;;;;4997131;28;20252;-69
2023/12/12 07:57:06;;;;;;;9.07;4.60;;;;;;;;;;4997348;28;20209;-69
2023/12/12 07:59:34;;;;;;;9.17;5.10;;;;;;;;;;4997353;28;20201;-69
2023/12/12 08:02:03;;;;;;;6.10;4.30;;;;;;;;;;4997081;28;20212;-69
2023/12/12 08:04:31;;;;;;;7.10;4.20;;;;;;;;;;4997259;28;20241;-69
2023/12/12 08:07:00;;;;;;;7.20;4.10;;;;;;;;;;4997641;28;20221;-70
2023/12/12 08:09:29;;;;;;;7.77;4.40;;;;;;;;;;4997189;28;20201;-70
2023/12/12 08:11:57;;;;;;;8.80;3.63;;;;;;;;;;4996805;28;20217;-69
2023/12/12 08:14:26;;;;;;;7.73;3.93;;;;;;;;;;4985317;28;20551;-70
2023/12/12 08:16:54;;;;;;;6.90;4.20;;;;;;;;;;4999099;28;20633;-69
2023/12/12 08:19:22;;;;;;;7.37;4.43;;;;;;;;;;5001148;28;20204;-70
2023/12/12 08:21:51;;;;;;;8.50;4.00;;;;;;;;;;5000338;28;20205;-70
2023/12/12 08:24:20;;;;;;;8.37;4.07;;;;;;;;;;5000912;28;20688;-69
2023/12/12 08:26:48;;;;;;;8.40;4.37;;;;;;;;;;5000154;28;20578;-70
2023/12/12 08:29:16;;;;;;;5.47;3.77;;;;;;;;;;5001210;28;20236;-70
2023/12/12 08:31:44;;;;;;;7.73;4.20;;;;;;;;;;5000798;28;20201;-70
2023/12/12 08:34:13;;;;;;;6.60;4.37;;;;;;;;;;5000459;28;20229;-70
2023/12/12 08:36:41;;;;;;;7.23;4.60;;;;;;;;;;4999271;28;20254;-70
2023/12/12 08:39:09;;;;;;;8.53;4.90;;;;;;;;;;5001012;28;20217;-69
2023/12/12 08:41:40;;;;;;;8.67;5.07;;;;;;;;;;5000216;28;20205;-69
2023/12/12 08:44:08;;;;;;;10.33;4.93;;;;;;;;;;5000829;28;20208;-70
2023/12/12 08:46:36;;;;;;;8.50;4.40;;;;;;;;;;5000388;28;20205;-70
2023/12/12 08:49:04;;;;;;;9.87;4.30;;;;;;;;;;5000361;28;20283;-70
2023/12/12 08:51:34;;;;;;;5.10;4.37;;;;;;;;;;5000245;28;20205;-70
2023/12/12 08:54:03;;;;;;;5.57;3.83;;;;;;;;;;5000474;28;20225;-70
2023/12/12 08:56:31;;;;;;;5.23;4.00;;;;;;;;;;5000378;28;20219;-70
2023/12/12 08:59:01;;;;;;;4.50;3.30;;;;;;;;;;5000200;28;20205;-70
2023/12/12 09:01:29;;;;;;;5.53;3.67;;;;;;;;;;5000138;28;20659;-70
2023/12/12 09:03:57;;;;;;;8.30;4.10;;;;;;;;;;4990756;28;20212;-70
2023/12/12 09:06:25;;;;;;;7.00;4.70;;;;;;;;;;4999660;28;20260;-70
2023/12/12 09:08:54;;;;;;;7.43;4.00;;;;;;;;;;4991060;28;20575;-70
2023/12/12 09:11:22;;;;;;;6.40;3.23;;;;;;;;;;5000249;28;20228;-70
2023/12/12 09:13:50;;;;;;;4.17;3.13;;;;;;;;;;4999973;28;20209;-69
2023/12/12 09:16:20;;;;;;;8.60;3.93;;;;;;;;;;4999783;28;20224;-69
2023/12/12 09:18:50;;;;;;;6.03;3.33;;;;;;;;;;5000011;28;20209;-70
2023/12/12 09:21:18;;;;;;;7.93;3.53;;;;;;;;;;5000014;28;20205;-69
2023/12/12 09:23:46;;;;;;;4.47;2.60;;;;;;;;;;4999648;28;20723;-69
2023/12/12 09:26:15;;;;;;;6.10;3.70;;;;;;;;;;4999592;28;20220;-69
2023/12/12 09:28:43;;;;;;;3.67;3.23;;;;;;;;;;4998700;28;20205;-69
2023/12/12 09:31:12;;;;;;;7.07;3.27;;;;;;;;;;5000052;28;20213;-69
2023/12/12 09:33:41;;;;;;;5.20;3.37;;;;;;;;;;4999208;28;20702;-70
2023/12/12 09:36:10;;;;;;;5.50;3.33;;;;;;;;;;4981630;28;20234;-70
2023/12/12 09:38:38;;;;;;;4.23;3.40;;;;;;;;;;4996081;28;20251;-68
2023/12/12 09:41:07;;;;;;;4.87;3.10;;;;;;;;;;4999611;28;20656;-66
2023/12/12 09:43:38;;;;;;;5.40;3.20;;;;;;;;;;4999182;28;20201;-69
2023/12/12 09:46:08;;;;;;;4.80;3.20;;;;;;;;;;4999419;28;20280;-67
2023/12/12 09:48:36;;;;;;;6.67;3.53;;;;;;;;;;4999518;28;20205;-69
2023/12/12 09:51:07;;;;;;;4.73;3.43;;;;;;;;;;4996792;28;20255;-68
2023/12/12 09:53:37;;;;;;;5.70;3.50;;;;;;;;;;4994546;28;20580;-67
2023/12/12 09:56:14;;;;;;;8.20;3.60;;;;;;;;;;4995987;28;20229;-71
2023/12/12 09:58:45;;;;;;;6.47;3.53;;;;;;;;;;4998115;28;20642;-70
2023/12/12 10:01:15;;;;;;;7.13;3.90;;;;;;;;;;4993325;28;20212;-72
2023/12/12 10:03:46;;;;;;;7.87;4.03;;;;;;;;;;4987348;28;20264;-71
2023/12/12 10:06:17;;;;;;;7.63;4.20;;;;;;;;;;4998274;28;20304;-70
2023/12/12 10:08:46;;;;;;;4.97;3.80;;;;;;;;;;4994766;28;20208;-72
2023/12/12 10:11:14;;;;;;;5.13;3.90;;;;;;;;;;4997753;28;20205;-71
2023/12/12 10:13:50;;;;;;;6.00;3.93;;;;;;;;;;4997779;28;20739;-72
2023/12/12 10:16:19;;;;;;;5.43;3.70;;;;;;;;;;4996835;28;20373;-71
2023/12/12 10:18:47;;;;;;;5.07;3.90;;;;;;;;;;4995469;28;20209;-72
2023/12/12 10:21:19;;;;;;;5.47;3.67;;;;;;;;;;4995625;28;20209;-71
2023/12/12 10:23:48;;;;;;;6.73;3.83;;;;;;;;;;4991757;28;20263;-71
2023/12/12 10:26:23;;;;;;;7.10;4.73;;;;;;;;;;4994867;28;20736;-70
2023/12/12 10:28:51;;;;;;;5.50;3.67;;;;;;;;;;4995985;28;20264;-71
2023/12/12 10:31:20;;;;;;;7.67;3.30;;;;;;;;;;4998485;28;20232;-70
2023/12/12 10:33:49;;;;;;;4.80;3.23;;;;;;;;;;4998000;28;20207;-70
2023/12/12 10:36:18;;;;;;;7.83;4.50;;;;;;;;;;4998036;28;20316;-70
2023/12/12 10:38:47;;;;;;;5.67;3.90;;;;;;;;;;4997450;28;20210;-71
2023/12/12 10:41:16;;;;;;;6.53;3.97;;;;;;;;;;4993892;28;20208;-72
2023/12/12 10:43:45;;;;;;;6.37;4.13;;;;;;;;;;4997790;28;20213;-71
2023/12/12 10:46:14;;;;;;;6.77;4.50;;;;;;;;;;4997238;28;20216;-71
2023/12/12 10:48:46;;;;;;;5.40;4.07;;;;;;;;;;4996547;28;20201;-72
2023/12/12 10:51:15;;;;;;;5.77;3.60;;;;;;;;;;4997474;28;20742;-72
2023/12/12 10:53:45;;;;;;;5.63;3.40;;;;;;;;;;4998036;28;20207;-68
2023/12/12 10:56:13;;;;;;;4.40;3.23;;;;;;;;;;4993365;28;20608;-73
2023/12/12 10:58:43;;;;;;;5.47;3.83;;;;;;;;;;4997680;28;20205;-72
2023/12/12 11:01:12;;;;;;;5.77;3.63;;;;;;;;;;4998613;28;20201;-72
2023/12/12 11:03:41;;;;;;;8.77;4.00;;;;;;;;;;4995723;28;20210;-72
2023/12/12 11:06:10;;;;;;;6.70;3.87;;;;;;;;;;4991925;28;20223;-72
2023/12/12 11:08:38;;;;;;;4.97;3.47;;;;;;;;;;4998420;28;20201;-72
2023/12/12 11:11:09;;;;;;;4.33;3.27;;;;;;;;;;4998733;28;20205;-72
2023/12/12 11:13:39;;;;;;;5.70;3.93;;;;;;;;;;5002486;28;20276;-72
2023/12/12 11:16:08;;;;;;;8.10;3.70;;;;;;;;;;4998489;28;20688;-72
2023/12/12 11:18:39;;;;;;;6.40;3.43;;;;;;;;;;4998381;28;20201;-73
2023/12/12 11:21:08;;;;;;;7.83;3.53;;;;;;;;;;4997988;28;20652;-72
2023/12/12 11:24:01;;;;;;;8.43;3.90;;;;;;;;;;4995028;28;20661;-72
2023/12/12 11:26:31;;;;;;;6.80;4.00;;;;;;;;;;4976553;28;20201;-72
2023/12/12 11:28:59;;;;;;;6.67;4.07;;;;;;;;;;4997371;28;20255;-71
2023/12/12 11:31:29;;;;;;;5.50;4.13;;;;;;;;;;4997506;28;20205;-72
2023/12/12 11:34:04;;;;;;;5.20;3.50;;;;;;;;;;4997646;28;20209;-73
2023/12/12 11:36:51;;;;;;;6.30;3.60;;;;;;;;;;4985024;28;20252;-73
2023/12/12 11:39:30;;;;;;;6.07;4.17;;;;;;;;;;4994705;28;20208;-72
2023/12/12 11:42:03;;;;;;;8.57;4.20;;;;;;;;;;4987415;28;20212;-72
2023/12/12 11:44:41;;;;;;;9.83;4.23;;;;;;;;;;4994814;28;20712;-73
2023/12/12 11:47:23;;;;;;;5.67;4.20;;;;;;;;;;4997846;28;20201;-73
2023/12/12 11:50:15;;;;;;;7.73;4.20;;;;;;;;;;4981269;28;20691;-72
2023/12/12 11:52:56;;;;;;;4.87;4.47;;;;;;;;;;4999089;28;20569;-73
2023/12/12 11:55:28;;;;;;;4.50;4.10;;;;;;;;;;5001027;28;20343;-73
2023/12/12 11:58:01;;;;;;;6.77;4.27;;;;;;;;;;5000616;28;20701;-72
2023/12/12 12:00:32;;;;;;;5.60;3.53;;;;;;;;;;4998541;28;20201;-71
2023/12/12 12:03:01;;;;;;;4.63;4.07;;;;;;;;;;5000995;28;20207;-72
2023/12/12 12:05:29;;;;;;;5.90;4.47;;;;;;;;;;5001399;28;20229;-72
2023/12/12 12:08:01;;;;;;;5.17;4.33;;;;;;;;;;4989145;28;20212;-75
2023/12/12 12:10:29;;;;;;;6.53;4.47;;;;;;;;;;5001268;28;20208;-76
2023/12/12 12:12:58;;;;;;;5.90;4.10;;;;;;;;;;4988442;28;20217;-77
2023/12/12 12:15:29;;;;;;;5.70;3.77;;;;;;;;;;5001431;28;20232;-77
2023/12/12 12:17:58;;;;;;;4.80;3.87;;;;;;;;;;4991341;28;20209;-75
2023/12/12 12:20:29;;;;;;;9.83;4.10;;;;;;;;;;5000428;28;20280;-77
2023/12/12 12:22:57;;;;;;;7.40;4.13;;;;;;;;;;5000212;28;20570;-74
2023/12/12 12:25:27;;;;;;;6.33;4.27;;;;;;;;;;5001206;28;20224;-75
2023/12/12 12:27:56;;;;;;;7.03;4.00;;;;;;;;;;4999946;28;20232;-74
2023/12/12 12:30:25;;;;;;;7.80;4.70;;;;;;;;;;5000602;28;20205;-74
2023/12/12 12:33:00;;;;;;;5.80;3.93;;;;;;;;;;5000751;28;20204;-74
2023/12/12 12:35:29;;;;;;;5.83;4.60;;;;;;;;;;4998188;28;20228;-73
2023/12/12 12:37:58;;;;;;;5.43;4.73;;;;;;;;;;5000059;28;20656;-75
2023/12/12 12:40:37;;;;;;;6.40;4.30;;;;;;;;;;5000341;28;20208;-74
2023/12/12 12:43:15;;;;;;;5.30;4.50;;;;;;;;;;5000228;28;20204;-74
2023/12/12 12:45:45;;;;;;;5.87;4.67;;;;;;;;;;4991433;28;20232;-75
2023/12/12 12:48:13;;;;;;;6.93;4.23;;;;;;;;;;4996780;28;20212;-74
2023/12/12 12:50:46;;;;;;;6.73;4.33;;;;;;;;;;5000105;28;20232;-73
2023/12/12 12:53:14;;;;;;;7.10;5.00;;;;;;;;;;5000476;28;20297;-72
2023/12/12 12:55:44;;;;;;;6.67;4.63;;;;;;;;;;5000135;28;20308;-71
2023/12/12 12:58:14;;;;;;;5.77;5.17;;;;;;;;;;4991438;28;20664;-72
2023/12/12 13:00:42;;;;;;;7.70;4.40;;;;;;;;;;5000416;28;20205;-71
2023/12/12 13:03:14;;;;;;;8.07;4.37;;;;;;;;;;4992078;28;20201;-71
2023/12/12 13:05:43;;;;;;;8.27;4.80;;;;;;;;;;4992889;28;20696;-73
2023/12/12 13:08:12;;;;;;;7.53;4.20;;;;;;;;;;4998889;28;20572;-76
2023/12/12 13:10:40;;;;;;;6.73;4.53;;;;;;;;;;4996177;28;20211;-71
2023/12/12 13:13:19;;;;;;;7.60;5.13;;;;;;;;;;4998815;28;20574;-69
2023/12/12 13:15:49;;;;;;;7.67;5.10;;;;;;;;;;4999373;28;20309;-69
2023/12/12 13:18:18;;;;;;;8.00;4.83;;;;;;;;;;4998493;28;20223;-68
2023/12/12 13:20:47;;;;;;;8.87;5.10;;;;;;;;;;4998953;28;20656;-70
2023/12/12 13:23:15;;;;;;;9.53;4.23;;;;;;;;;;4999172;28;20216;-70
2023/12/12 13:25:44;;;;;;;8.73;5.57;;;;;;;;;;4999458;28;20662;-68
2023/12/12 13:28:12;;;;;;;7.50;5.20;;;;;;;;;;4997258;28;20239;-68
2023/12/12 13:30:42;;;;;;;9.90;7.13;;;;;;;;;;4998994;28;20212;-69
2023/12/12 13:33:11;;;;;;;9.43;6.80;;;;;;;;;;4999337;28;20232;-68
2023/12/12 13:35:39;;;;;;;7.50;5.77;;;;;;;;;;4999500;28;20224;-69
2023/12/12 13:38:08;;;;;;;10.30;6.07;;;;;;;;;;4993975;28;20225;-71
2023/12/12 13:40:37;;;;;;;11.07;5.97;;;;;;;;;;4999748;28;20208;-71
2023/12/12 13:43:06;;;;;;;11.20;6.53;;;;;;;;;;4998881;28;20742;-67
2023/12/12 13:45:36;;;;;;;8.83;6.13;;;;;;;;;;4999546;28;20225;-71
2023/12/12 13:48:06;;;;;;;10.13;6.00;;;;;;;;;;4998698;28;20201;-67
2023/12/12 13:50:34;;;;;;;9.43;5.70;;;;;;;;;;4998785;28;20287;-69
2023/12/12 13:53:03;;;;;;;12.07;5.70;;;;;;;;;;4999020;28;20235;-70
2023/12/12 13:55:31;;;;;;;13.23;6.07;;;;;;;;;;4998653;28;20316;-70
2023/12/12 13:57:59;;;;;;;8.40;5.77;;;;;;;;;;4998411;28;20227;-70
2023/12/12 14:00:28;;;;;;;8.53;5.47;;;;;;;;;;4998652;28;20267;-67
2023/12/12 14:02:56;;;;;;;7.67;4.63;;;;;;;;;;4998769;28;20211;-66
2023/12/12 14:05:25;;;;;;;8.80;5.77;;;;;;;;;;4999281;28;20232;-67
2023/12/12 14:07:56;;;;;;;7.27;5.30;;;;;;;;;;4999263;28;20205;-67
2023/12/12 14:10:24;;;;;;;10.90;5.70;;;;;;;;;;4999016;28;20211;-66
2023/12/12 14:12:53;;;;;;;10.67;5.17;;;;;;;;;;4997383;28;20687;-67
2023/12/12 14:15:21;;;;;;;9.60;5.27;;;;;;;;;;4998710;28;20225;-68
2023/12/12 14:17:49;;;;;;;8.03;4.93;;;;;;;;;;4998143;28;20638;-69
2023/12/12 14:20:20;;;;;;;12.37;5.97;;;;;;;;;;4998433;28;20275;-67
2023/12/12 14:22:50;;;;;;;9.13;5.10;;;;;;;;;;4998063;28;20567;-67
2023/12/12 14:25:31;;;;;;;8.43;5.37;;;;;;;;;;4997811;28;20591;-70
2023/12/12 14:28:00;;;;;;;6.97;4.97;;;;;;;;;;4996245;28;20235;-68
2023/12/12 14:30:28;;;;;;;7.60;4.80;;;;;;;;;;4994557;28;20209;-68
2023/12/12 14:32:57;;;;;;;7.00;4.70;;;;;;;;;;4998475;28;20211;-69
2023/12/12 14:35:30;;;;;;;4.77;3.93;;;;;;;;;;4998061;28;20279;-71
2023/12/12 14:38:23;;;;;;;7.33;4.37;;;;;;;;;;4998123;28;20229;-68
2023/12/12 14:41:01;;;;;;;10.10;4.00;;;;;;;;;;4995393;28;20678;-71
2023/12/12 14:43:29;;;;;;;7.50;4.10;;;;;;;;;;4997371;28;20201;-71
2023/12/12 14:45:57;;;;;;;6.33;4.30;;;;;;;;;;4997418;28;20232;-71
2023/12/12 14:48:32;;;;;;;8.00;5.17;;;;;;;;;;4997690;28;20197;-71
2023/12/12 14:51:01;;;;;;;7.17;4.30;;;;;;;;;;4991066;28;20236;-72
2023/12/12 14:53:32;;;;;;;8.20;5.03;;;;;;;;;;4997967;28;20612;-72